aviador You're here:

LFBT Decoded Metar

TARBES in FRANCE
Report Time2017-08-18 04:30:00
UTC Time2017-08-18 04:49:30
Flight Rules ifr IFR
Wind230° at 06 kt
W.Decomp.*RWY 20: 5.2 kt HW 3.0 kt RCW
W.Rank230° ranks 14
Current wind is above 230° avg. (5.0)
Visibility9999 m
Phenomena:N/A
Clouds:Overcast 006 Hf
Expected CloudBase > 400 ft AGL from Temp-Dew spread
Ceiling600 ft
Temp18°C (ISA +5)
Dew Point17°C (94% RH)
QNH1019 hPa
Density Alt1,880 ft
Elevation1,191 ft
Report Wrong Elevation
Raw Report
LFBT 180430Z AUTO 23006KT 190V260 9999 OVC006 18/17 Q1019
NOSIG=

Extra information for LFBT:More info

Metar Taf Metar & Taf Last 4 Metars F.Rules Stats Wind Profile Meteogram Temp Stats Airport Information Weather charts Add Link Nearby VenuesMetar ALERT Operation Metar Decoded Social comments